Wake Village, Texas
Current Conditions -  °F | °C
As of 6:53 AM on Tuesday 21 Oct 2014 (Local Time) from KTXK Reporting Station
Overcast Overcast  
Wind Chill: 58°   Ceiling: 4300
Heat Index: 58°   Visibility: 8mi
Dew Point: 57°   Wind: 3mph
Humidity: 97%   Direction: 80°E
Pressure: 30.09"   Gusts: NA
Location:  33.3633°N, 94.2141°W
Report Text: KTXK 211153Z 08003KT 8SM OVC043 14/14 A3009 RMK AO2 SLP186 T01440139 10161 20122 53016
Loading
Personal Weather Stations






























Interactive Weather Map
Tropical Storm Tracking
New forecast layout! Learn more

10-Day Weather Forecast

Advertisements
Track Severe Weather on mobile